Terminal Aerodrome Forecast
Issued by NWS Mt. Holly, NJ

Current Version | Previous Version | Text Only | Print | Product List | Glossary On
Versions: 1 2 3 4 5 6 7 8 9 10 11 12 13 14 15 16 17 18 19 20 21 22 23 24 25 26 27 28 29 30 31 32 33 34 35 36 37 38 39
000
FTUS41 KPHI 211127
TAFACY
TAF
KACY 211127Z 2112/2212 VRB04KT 3SM BR FEW002 BKN035
      TEMPO 2112/2114 1/2SM FG VV002
     FM211700 19008KT P6SM SCT035
     FM220500 VRB03KT 3SM BR SCT010=

USA.gov is the U.S. government's official web portal to all federal, state and local government web resources and services.